Time;durP1;ratioP1;P1;durP2;ratioP2;P2;SDS_P1;SDS_P2;PMS_P1;PMS_P2;Temp;Humidity;BMP_temperature;BMP_pressure;BME280_temperature;BME280_humidity;BME280_pressure;Samples;Min_cycle;Max_cycle;Signal;HPM_P1;HPM_P2
2022/01/27 00:01:39;;;;;;;33.37;21.13;;;5.50;96.20;;;;;;5136366;27;20150;-93
2022/01/27 00:04:05;;;;;;;33.43;21.40;;;5.40;94.90;;;;;;5163055;22;20245;-93
2022/01/27 00:06:33;;;;;;;30.00;20.70;;;5.20;96.00;;;;;;5114731;28;20196;-95
2022/01/27 00:09:08;;;;;;;30.93;21.63;;;5.30;96.20;;;;;;5113134;28;20167;-92
2022/01/27 00:11:43;;;;;;;31.90;21.40;;;5.30;95.90;;;;;;5122286;28;20221;-92
2022/01/27 00:14:11;;;;;;;32.57;20.57;;;5.40;95.80;;;;;;5103899;28;20634;-93
2022/01/27 00:16:41;;;;;;;29.37;21.17;;;5.30;95.90;;;;;;5103446;28;20171;-92
2022/01/27 00:19:12;;;;;;;30.60;20.80;;;5.20;96.20;;;;;;5102729;28;20170;-92
2022/01/27 00:21:38;;;;;;;31.43;21.90;;;5.10;96.40;;;;;;5102798;28;20159;-91
2022/01/27 00:24:04;;;;;;;33.20;22.27;;;5.30;96.50;;;;;;5106505;28;20175;-91
2022/01/27 00:26:35;;;;;;;30.10;20.90;;;5.20;96.40;;;;;;5113178;28;20670;-91
2022/01/27 00:29:16;;;;;;;33.77;21.03;;;5.40;96.50;;;;;;5114915;28;20166;-91
2022/01/27 00:31:42;;;;;;;29.20;19.77;;;5.30;96.30;;;;;;5109883;28;20195;-90
2022/01/27 00:34:09;;;;;;;27.83;19.53;;;5.10;97.00;;;;;;5117128;28;20179;-92
2022/01/27 00:36:35;;;;;;;30.97;20.43;;;5.20;96.90;;;;;;5101371;28;20221;-90
2022/01/27 00:39:03;;;;;;;29.17;20.67;;;5.10;97.10;;;;;;5109206;28;20171;-93
2022/01/27 00:41:29;;;;;;;28.43;20.60;;;5.20;97.10;;;;;;5074028;28;20246;-92
2022/01/27 00:43:55;;;;;;;31.73;20.27;;;5.20;97.10;;;;;;5109109;28;20198;-92
2022/01/27 00:46:26;;;;;;;29.10;19.83;;;5.40;96.70;;;;;;5113444;28;20159;-91
2022/01/27 00:48:53;;;;;;;29.43;20.20;;;5.60;96.00;;;;;;5121315;28;20182;-91
2022/01/27 00:51:24;;;;;;;28.17;19.40;;;5.40;96.10;;;;;;5115435;28;20171;-93
2022/01/27 00:54:05;;;;;;;32.63;21.00;;;5.40;96.20;;;;;;5109916;28;20163;-94
2022/01/27 00:56:45;;;;;;;31.77;20.00;;;5.50;96.20;;;;;;5105051;28;20183;-93
2022/01/27 01:04:48;;;;;;;27.00;18.53;;;5.40;95.70;;;;;;5108751;28;20198;-94
2022/01/27 01:07:16;;;;;;;29.07;19.37;;;5.40;96.10;;;;;;5104590;28;20248;-94
2022/01/27 01:15:17;;;;;;;29.50;19.50;;;5.40;96.30;;;;;;5139863;28;20214;-92
2022/01/27 01:18:03;;;;;;;28.37;18.67;;;5.30;96.20;;;;;;5123135;28;20185;-92
2022/01/27 01:20:42;;;;;;;30.43;19.57;;;5.30;96.60;;;;;;5111068;28;20186;-92
2022/01/27 01:33:59;;;;;;;27.97;19.43;;;5.60;95.10;;;;;;5124289;28;20549;-93
2022/01/27 01:36:36;;;;;;;28.47;18.60;;;5.50;95.20;;;;;;5105554;28;20198;-93
2022/01/27 01:39:05;;;;;;;29.87;19.63;;;5.50;95.90;;;;;;5110072;28;20173;-93
2022/01/27 01:41:32;;;;;;;28.53;18.97;;;5.50;96.10;;;;;;5105664;28;20174;-93
2022/01/27 01:43:57;;;;;;;30.77;19.83;;;5.50;96.10;;;;;;5139335;22;20266;-94
2022/01/27 01:46:23;;;;;;;30.93;19.77;;;5.50;96.20;;;;;;5134621;28;20171;-90
2022/01/27 01:49:06;;;;;;;28.93;18.83;;;5.50;96.10;;;;;;5130402;28;20633;-95
2022/01/27 01:51:37;;;;;;;26.50;18.67;;;5.50;96.10;;;;;;5121447;28;20182;-95
2022/01/27 01:54:07;;;;;;;26.10;17.73;;;5.40;96.40;;;;;;5100624;28;20167;-94
2022/01/27 01:56:35;;;;;;;27.83;18.33;;;5.40;96.80;;;;;;5118700;28;20222;-94
2022/01/27 01:59:02;;;;;;;28.23;19.50;;;5.50;96.70;;;;;;5119107;28;20175;-95
2022/01/27 02:01:28;;;;;;;30.20;20.40;;;5.40;97.10;;;;;;5119495;28;20667;-94
2022/01/27 02:03:53;;;;;;;29.77;19.53;;;5.40;97.00;;;;;;5119993;28;20175;-93
2022/01/27 02:06:31;;;;;;;29.70;17.93;;;5.50;97.10;;;;;;5119547;28;20171;-95
2022/01/27 02:19:44;;;;;;;28.40;18.53;;;5.40;97.60;;;;;;5138682;27;20182;-94
2022/01/27 02:22:10;;;;;;;29.83;18.43;;;5.40;97.50;;;;;;5138807;27;20179;-95
2022/01/27 02:24:38;;;;;;;30.50;18.77;;;5.50;97.60;;;;;;5137607;28;20182;-93
2022/01/27 02:27:07;;;;;;;31.13;19.73;;;5.60;97.00;;;;;;5129640;28;20181;-93
2022/01/27 02:29:40;;;;;;;31.90;18.70;;;5.60;96.90;;;;;;5128573;28;20646;-93
2022/01/27 02:32:07;;;;;;;28.60;18.77;;;5.50;96.70;;;;;;5121660;28;20194;-94
2022/01/27 02:34:37;;;;;;;30.83;18.50;;;5.50;97.00;;;;;;5120397;28;20199;-94
2022/01/27 02:37:03;;;;;;;28.93;18.73;;;5.50;97.40;;;;;;5121637;28;20171;-93
2022/01/27 02:39:29;;;;;;;30.83;18.97;;;5.50;97.70;;;;;;5129699;27;20245;-92
2022/01/27 02:41:57;;;;;;;30.80;19.10;;;5.40;97.80;;;;;;5138702;27;20174;-93
2022/01/27 02:44:32;;;;;;;33.03;19.90;;;5.40;97.70;;;;;;5138750;27;20178;-94
2022/01/27 02:46:58;;;;;;;29.77;18.50;;;5.40;98.00;;;;;;5138832;28;20158;-94
2022/01/27 02:49:27;;;;;;;31.83;19.20;;;5.40;98.00;;;;;;5121491;28;20178;-94
2022/01/27 02:51:56;;;;;;;31.17;18.63;;;5.60;98.00;;;;;;5124963;28;20171;-94
2022/01/27 02:54:22;;;;;;;33.90;19.50;;;5.30;97.90;;;;;;5101469;28;20182;-94
2022/01/27 02:56:49;;;;;;;34.07;18.30;;;5.40;98.30;;;;;;5118998;28;20167;-95
2022/01/27 02:59:17;;;;;;;30.57;19.50;;;5.50;97.80;;;;;;5118599;28;20166;-95
2022/01/27 03:01:46;;;;;;;31.80;20.03;;;5.40;98.10;;;;;;5117125;28;20167;-94
2022/01/27 03:04:12;;;;;;;34.83;20.07;;;5.40;98.50;;;;;;5119041;28;20173;-95
2022/01/27 03:06:38;;;;;;;33.50;21.33;;;5.40;98.50;;;;;;5123526;28;20605;-93
2022/01/27 03:09:16;;;;;;;33.73;20.93;;;5.50;98.40;;;;;;5125345;28;20296;-94
2022/01/27 03:11:57;;;;;;;31.80;20.17;;;5.30;98.30;;;;;;5126205;28;20171;-93
2022/01/27 03:14:24;;;;;;;30.37;20.27;;;5.40;98.70;;;;;;5125714;28;20171;-94
2022/01/27 03:16:54;;;;;;;29.23;19.63;;;5.40;98.50;;;;;;5133531;28;20206;-93
2022/01/27 03:19:21;;;;;;;31.77;19.40;;;5.40;98.90;;;;;;5130115;28;20167;-95
2022/01/27 03:21:53;;;;;;;33.73;20.93;;;5.30;99.00;;;;;;5123960;28;20246;-94
2022/01/27 03:24:20;;;;;;;33.60;21.00;;;5.30;99.80;;;;;;5124647;28;20238;-94
2022/01/27 03:26:46;;;;;;;31.50;20.40;;;5.40;99.10;;;;;;5130796;28;20199;-93
2022/01/27 03:29:12;;;;;;;33.93;20.60;;;5.40;99.10;;;;;;5128277;28;20198;-91
2022/01/27 03:31:41;;;;;;;30.97;20.10;;;5.30;99.10;;;;;;5130244;28;20198;-91
2022/01/27 03:34:06;;;;;;;35.87;21.47;;;5.30;99.30;;;;;;5128249;28;20619;-93
2022/01/27 03:36:32;;;;;;;35.10;22.00;;;5.40;99.50;;;;;;5128937;28;20206;-91
2022/01/27 03:38:58;;;;;;;36.37;21.47;;;5.30;99.80;;;;;;5137669;28;20182;-94
2022/01/27 03:41:23;;;;;;;33.67;21.07;;;5.30;99.70;;;;;;5139960;28;20174;-93
2022/01/27 03:43:50;;;;;;;36.33;22.83;;;5.30;99.90;;;;;;5130617;28;20224;-93
2022/01/27 03:46:18;;;;;;;34.30;20.30;;;5.40;99.90;;;;;;5130229;28;20266;-94
2022/01/27 03:48:47;;;;;;;31.37;19.83;;;5.30;99.70;;;;;;5135597;27;20222;-92
2022/01/27 03:51:15;;;;;;;36.43;20.73;;;5.40;99.90;;;;;;5142170;27;20159;-92
2022/01/27 03:53:43;;;;;;;37.70;23.73;;;5.40;99.90;;;;;;5141774;28;20159;-92
2022/01/27 03:56:09;;;;;;;34.50;20.77;;;5.40;99.90;;;;;;5135149;28;20222;-95
2022/01/27 03:58:35;;;;;;;34.57;21.80;;;5.40;99.90;;;;;;5128406;28;20174;-94
2022/01/27 04:01:05;;;;;;;33.97;21.67;;;5.40;99.90;;;;;;5130002;28;20224;-95
2022/01/27 04:03:36;;;;;;;36.70;22.23;;;5.30;99.90;;;;;;5130727;28;20175;-93
2022/01/27 04:06:10;;;;;;;38.00;22.83;;;5.20;99.90;;;;;;5111008;28;20177;-95
2022/01/27 04:08:38;;;;;;;32.77;20.87;;;5.30;99.90;;;;;;5134133;28;20202;-94
2022/01/27 04:11:08;;;;;;;35.57;21.50;;;5.30;99.90;;;;;;5134720;27;20163;-93
2022/01/27 04:13:36;;;;;;;39.07;23.67;;;5.20;99.90;;;;;;5109510;28;20183;-93
2022/01/27 04:16:04;;;;;;;36.90;22.47;;;5.40;99.90;;;;;;5127845;28;20209;-95
2022/01/27 04:18:32;;;;;;;36.10;22.53;;;5.20;99.90;;;;;;5140048;27;20159;-92
2022/01/27 04:20:58;;;;;;;39.67;22.20;;;5.20;99.90;;;;;;5140813;28;20203;-94
2022/01/27 04:23:28;;;;;;;37.57;22.40;;;5.20;99.90;;;;;;5138267;28;20171;-92
2022/01/27 04:26:04;;;;;;;41.73;24.10;;;5.20;99.90;;;;;;5128761;28;20178;-93
2022/01/27 04:28:35;;;;;;;43.07;24.73;;;5.20;99.90;;;;;;5125950;28;20198;-93
2022/01/27 04:31:05;;;;;;;38.00;22.57;;;5.20;99.90;;;;;;5138037;28;20159;-92
2022/01/27 04:33:34;;;;;;;41.50;24.77;;;5.20;99.90;;;;;;5138420;27;20197;-92
2022/01/27 04:36:08;;;;;;;44.10;25.10;;;5.40;99.90;;;;;;5141516;27;20206;-92
2022/01/27 04:41:19;;;;;;;39.60;25.23;;;5.20;99.90;;;;;;5136387;27;20175;-93
2022/01/27 04:44:02;;;;;;;43.03;25.70;;;5.20;99.90;;;;;;5129235;28;20210;-93
2022/01/27 04:46:53;;;;;;;39.97;23.63;;;5.20;99.90;;;;;;5123011;28;20198;-96
2022/01/27 04:49:30;;;;;;;44.70;24.07;;;5.10;99.90;;;;;;5128588;28;20261;-94
2022/01/27 04:52:08;;;;;;;41.63;25.63;;;5.00;99.90;;;;;;5111425;28;20264;-94
2022/01/27 04:54:54;;;;;;;42.37;25.50;;;5.10;99.90;;;;;;5140484;27;20254;-95
2022/01/27 04:57:20;;;;;;;44.63;26.47;;;5.10;99.90;;;;;;5140320;27;20185;-89
2022/01/27 04:59:48;;;;;;;46.07;26.70;;;5.00;99.90;;;;;;5140385;27;20750;-93
2022/01/27 05:02:27;;;;;;;42.43;24.07;;;5.00;99.90;;;;;;5140202;27;20179;-92
2022/01/27 05:05:45;;;;;;;43.70;25.93;;;5.00;99.90;;;;;;5135814;28;20155;-93
2022/01/27 05:08:18;;;;;;;44.83;25.00;;;5.00;99.90;;;;;;5126511;28;20186;-94
2022/01/27 05:10:56;;;;;;;43.43;26.00;;;5.00;99.90;;;;;;5131147;27;20189;-94
2022/01/27 05:13:27;;;;;;;51.43;27.47;;;5.00;99.90;;;;;;5117775;28;20247;-94
2022/01/27 05:15:53;;;;;;;44.07;25.13;;;5.00;99.90;;;;;;5126627;28;20207;-94
2022/01/27 05:18:21;;;;;;;45.80;26.73;;;5.00;99.90;;;;;;5121095;28;20167;-94
2022/01/27 05:20:47;;;;;;;42.07;26.43;;;5.10;99.90;;;;;;5134167;28;20188;-93
2022/01/27 05:23:14;;;;;;;43.37;26.63;;;5.00;99.90;;;;;;5139806;27;20171;-92
2022/01/27 05:25:40;;;;;;;42.47;27.03;;;5.00;99.90;;;;;;5139578;27;20178;-94
2022/01/27 05:28:08;;;;;;;45.07;27.80;;;5.00;99.90;;;;;;5136400;27;20179;-92
2022/01/27 05:30:42;;;;;;;46.20;25.53;;;4.90;99.90;;;;;;5117282;27;20179;-92
2022/01/27 05:33:11;;;;;;;41.47;25.80;;;5.20;99.90;;;;;;5139870;27;20190;-92
2022/01/27 05:35:45;;;;;;;47.73;26.33;;;5.10;99.90;;;;;;5136832;28;20217;-94
2022/01/27 05:38:14;;;;;;;49.13;27.50;;;5.00;99.90;;;;;;5119229;28;20166;-93
2022/01/27 05:40:44;;;;;;;42.20;25.70;;;5.10;99.90;;;;;;5134614;27;20163;-95
2022/01/27 05:43:11;;;;;;;41.67;25.23;;;5.20;99.90;;;;;;5122259;27;20170;-92
2022/01/27 05:45:38;;;;;;;48.57;27.23;;;5.00;99.90;;;;;;5122194;27;20221;-94
2022/01/27 05:48:10;;;;;;;45.73;26.77;;;5.00;99.90;;;;;;5139464;27;20159;-93
2022/01/27 05:50:41;;;;;;;46.43;26.30;;;5.10;99.90;;;;;;5137335;28;20195;-94
2022/01/27 05:53:17;;;;;;;52.37;28.77;;;5.10;99.90;;;;;;5131174;27;20239;-93
2022/01/27 05:55:43;;;;;;;47.03;27.83;;;5.10;99.90;;;;;;5129070;28;20206;-95
2022/01/27 05:58:13;;;;;;;50.47;28.77;;;5.00;99.90;;;;;;5135351;28;20541;-95
2022/01/27 06:00:42;;;;;;;46.73;25.73;;;5.00;99.90;;;;;;5117772;28;20181;-93
2022/01/27 06:03:13;;;;;;;43.30;26.33;;;5.10;99.90;;;;;;5107101;28;20261;-96
2022/01/27 06:05:41;;;;;;;46.20;28.30;;;5.10;99.90;;;;;;5124012;28;20696;-95
2022/01/27 06:08:08;;;;;;;47.43;26.97;;;5.00;99.90;;;;;;5134794;28;20163;-96
2022/01/27 06:10:35;;;;;;;47.93;26.17;;;5.00;99.90;;;;;;5123145;28;20175;-94
2022/01/27 06:13:01;;;;;;;47.20;27.07;;;5.00;99.90;;;;;;5118834;28;20220;-94
2022/01/27 06:15:34;;;;;;;46.80;27.80;;;5.00;99.90;;;;;;5118760;28;20222;-94
2022/01/27 06:18:02;;;;;;;51.67;28.87;;;5.10;99.90;;;;;;5121678;28;20170;-95
2022/01/27 06:20:29;;;;;;;44.47;27.63;;;5.20;99.90;;;;;;5118048;28;20175;-94
2022/01/27 06:22:57;;;;;;;54.17;28.77;;;5.10;99.90;;;;;;5127445;28;20182;-94
2022/01/27 06:25:27;;;;;;;46.00;26.97;;;5.10;99.90;;;;;;5121333;28;20179;-95
2022/01/27 06:27:53;;;;;;;50.53;29.33;;;5.20;99.90;;;;;;5103591;28;20190;-94
2022/01/27 06:30:19;;;;;;;46.63;28.33;;;5.10;99.90;;;;;;5125352;28;20213;-94
2022/01/27 06:32:45;;;;;;;51.53;28.60;;;5.30;99.90;;;;;;5118038;28;20195;-95
2022/01/27 06:35:11;;;;;;;48.40;27.60;;;5.30;99.90;;;;;;5120353;28;20270;-95
2022/01/27 06:37:37;;;;;;;44.87;27.77;;;5.30;99.90;;;;;;5120257;28;20171;-92
2022/01/27 06:40:05;;;;;;;45.73;28.20;;;5.40;99.90;;;;;;5118927;28;20178;-93
2022/01/27 06:42:31;;;;;;;47.03;28.00;;;5.40;99.90;;;;;;5120206;28;20158;-92
2022/01/27 06:44:58;;;;;;;45.23;26.47;;;5.30;99.90;;;;;;5119301;28;20193;-91
2022/01/27 06:47:24;;;;;;;44.93;26.77;;;5.40;99.90;;;;;;5120207;28;20178;-91
2022/01/27 06:50:03;;;;;;;45.17;27.43;;;5.30;99.90;;;;;;5119941;28;20179;-93
2022/01/27 06:52:29;;;;;;;47.43;27.43;;;5.40;99.90;;;;;;5118476;28;20821;-90
2022/01/27 06:54:57;;;;;;;43.23;24.17;;;5.50;99.90;;;;;;5110723;28;20199;-91
2022/01/27 06:57:25;;;;;;;45.77;25.90;;;5.40;99.90;;;;;;5130689;27;20167;-94
2022/01/27 06:59:52;;;;;;;46.63;28.07;;;5.40;99.90;;;;;;5102862;28;20212;-93
2022/01/27 07:02:18;;;;;;;42.27;26.73;;;5.60;99.90;;;;;;5089560;28;20189;-91
2022/01/27 07:04:44;;;;;;;49.50;27.33;;;5.60;99.90;;;;;;5112217;28;20209;-94
2022/01/27 07:07:13;;;;;;;46.17;26.80;;;5.50;99.90;;;;;;5103027;28;20167;-91
2022/01/27 07:09:40;;;;;;;42.53;25.50;;;5.60;99.90;;;;;;5119380;28;20175;-92
2022/01/27 07:12:06;;;;;;;44.73;26.80;;;5.60;99.90;;;;;;5119804;28;20178;-92
2022/01/27 07:14:38;;;;;;;45.00;27.37;;;5.60;99.90;;;;;;5118346;28;20175;-94
2022/01/27 07:17:04;;;;;;;49.60;26.97;;;5.70;99.90;;;;;;5103076;28;20242;-94
2022/01/27 07:19:30;;;;;;;49.33;26.77;;;5.60;99.90;;;;;;5084364;28;20223;-91
2022/01/27 07:21:55;;;;;;;52.20;27.60;;;5.70;99.90;;;;;;5084671;28;20175;-94
2022/01/27 07:24:25;;;;;;;50.67;25.83;;;5.80;99.90;;;;;;5084611;28;20252;-93
2022/01/27 07:26:52;;;;;;;47.80;26.53;;;5.70;99.90;;;;;;5103287;28;20172;-95
2022/01/27 07:29:21;;;;;;;49.47;26.30;;;5.70;99.90;;;;;;5094826;28;20179;-94
2022/01/27 07:31:47;;;;;;;49.87;27.13;;;5.70;99.90;;;;;;5120826;28;20215;-96
2022/01/27 07:34:12;;;;;;;44.60;26.87;;;5.80;99.90;;;;;;5103371;28;20178;-94
2022/01/27 07:36:41;;;;;;;45.70;26.67;;;5.60;99.90;;;;;;5122740;28;20207;-95
2022/01/27 07:39:14;;;;;;;48.67;27.40;;;5.70;99.90;;;;;;5114355;27;20207;-96
2022/01/27 07:41:42;;;;;;;47.07;28.93;;;5.80;99.90;;;;;;5110089;28;20200;-96
2022/01/27 07:44:09;;;;;;;46.17;28.37;;;5.70;99.90;;;;;;5112029;28;20207;-94
2022/01/27 07:46:38;;;;;;;48.67;28.30;;;5.90;99.90;;;;;;5089033;28;20188;-96
2022/01/27 07:49:04;;;;;;;42.50;25.87;;;6.00;99.90;;;;;;5116084;28;20189;-95
2022/01/27 07:51:30;;;;;;;40.27;25.50;;;6.00;99.90;;;;;;5134653;27;20234;-93
2022/01/27 07:53:56;;;;;;;42.60;27.10;;;6.10;99.90;;;;;;5133020;28;20180;-93
2022/01/27 07:56:22;;;;;;;47.40;25.47;;;6.10;99.90;;;;;;5116410;27;20210;-91
2022/01/27 07:58:48;;;;;;;45.00;24.80;;;6.10;99.90;;;;;;5137179;28;20187;-95
2022/01/27 08:01:16;;;;;;;44.93;25.47;;;6.20;99.90;;;;;;5132898;28;20195;-96
2022/01/27 08:03:44;;;;;;;51.27;27.70;;;6.20;99.90;;;;;;5112096;28;20218;-95
2022/01/27 08:06:24;;;;;;;45.23;26.17;;;6.20;99.90;;;;;;5108691;28;20179;-93
2022/01/27 08:08:55;;;;;;;40.83;25.37;;;6.20;99.90;;;;;;5113415;28;20178;-90
2022/01/27 08:11:42;;;;;;;44.53;25.87;;;6.30;99.90;;;;;;5112300;28;20654;-91
2022/01/27 08:14:08;;;;;;;44.00;24.37;;;6.30;99.90;;;;;;5116031;28;20277;-94
2022/01/27 08:16:37;;;;;;;37.93;24.67;;;6.40;99.90;;;;;;5131565;27;20279;-93
2022/01/27 08:19:03;;;;;;;46.90;25.93;;;6.30;99.90;;;;;;5127658;27;20492;-92
2022/01/27 08:21:29;;;;;;;42.90;26.17;;;6.30;99.90;;;;;;5110109;28;20210;-91
2022/01/27 08:23:59;;;;;;;47.00;25.67;;;6.40;99.90;;;;;;5124115;28;20631;-94
2022/01/27 08:26:35;;;;;;;43.47;25.77;;;6.40;99.90;;;;;;5111944;28;20167;-90
2022/01/27 08:29:18;;;;;;;42.67;27.13;;;6.40;99.90;;;;;;5112519;28;20179;-91
2022/01/27 08:32:02;;;;;;;37.57;23.57;;;6.40;99.90;;;;;;5112421;28;20202;-90
2022/01/27 08:34:36;;;;;;;38.10;23.93;;;6.60;99.90;;;;;;5107898;28;20646;-91
2022/01/27 08:37:18;;;;;;;45.80;25.67;;;6.60;99.90;;;;;;5114776;28;20174;-90
2022/01/27 08:39:49;;;;;;;42.67;24.30;;;6.60;99.90;;;;;;5117060;28;20630;-93
2022/01/27 08:42:19;;;;;;;39.30;24.47;;;6.60;99.90;;;;;;5106038;28;20220;-92
2022/01/27 08:44:45;;;;;;;39.53;24.17;;;6.60;99.90;;;;;;5121454;28;20179;-93
2022/01/27 08:47:15;;;;;;;42.80;25.10;;;6.60;99.90;;;;;;5124574;28;20198;-93
2022/01/27 08:49:44;;;;;;;41.93;26.10;;;6.70;99.90;;;;;;5105869;28;20199;-90
2022/01/27 08:52:10;;;;;;;40.30;24.60;;;6.60;99.90;;;;;;5114181;27;20246;-93
2022/01/27 08:54:35;;;;;;;39.83;23.63;;;6.70;99.90;;;;;;5123130;28;20507;-90
2022/01/27 08:57:07;;;;;;;42.10;25.47;;;6.60;99.90;;;;;;5126836;28;20554;-90
2022/01/27 08:59:34;;;;;;;42.47;24.53;;;6.70;99.90;;;;;;5112471;28;20626;-91
2022/01/27 09:02:03;;;;;;;43.17;25.67;;;6.70;99.90;;;;;;5103761;28;20248;-91
2022/01/27 09:04:29;;;;;;;41.50;24.97;;;6.70;99.90;;;;;;5110714;28;20182;-92
2022/01/27 09:06:54;;;;;;;37.67;23.77;;;6.80;99.90;;;;;;5115769;28;20296;-90
2022/01/27 09:09:20;;;;;;;42.53;24.87;;;6.80;99.90;;;;;;5116154;28;20251;-90
2022/01/27 09:11:46;;;;;;;48.17;25.20;;;6.90;99.90;;;;;;5099009;28;20274;-92
2022/01/27 09:14:15;;;;;;;43.47;24.07;;;6.80;99.90;;;;;;5109673;28;20181;-92
2022/01/27 09:16:45;;;;;;;40.07;24.20;;;6.80;99.90;;;;;;5138640;28;20214;-91
2022/01/27 09:19:11;;;;;;;43.80;23.80;;;6.80;99.90;;;;;;5126358;28;20176;-90
2022/01/27 09:21:42;;;;;;;36.90;22.73;;;6.90;99.90;;;;;;5108687;28;20198;-91
2022/01/27 09:24:15;;;;;;;41.30;24.40;;;6.90;99.90;;;;;;5135136;28;20412;-91
2022/01/27 09:26:58;;;;;;;42.70;24.40;;;6.90;99.90;;;;;;5112841;28;20170;-89
2022/01/27 09:29:27;;;;;;;37.63;23.67;;;7.00;99.90;;;;;;5104391;28;20254;-89
2022/01/27 09:32:02;;;;;;;37.73;24.03;;;7.00;99.90;;;;;;5110741;28;20203;-92
2022/01/27 09:34:28;;;;;;;39.97;24.60;;;6.90;99.90;;;;;;5107094;28;20218;-91
2022/01/27 09:36:57;;;;;;;44.63;24.90;;;7.20;99.90;;;;;;5107284;28;20168;-92
2022/01/27 09:39:27;;;;;;;39.60;24.53;;;7.10;99.90;;;;;;5112891;28;20164;-91
2022/01/27 09:41:55;;;;;;;42.40;24.73;;;7.30;99.90;;;;;;5113305;28;20191;-92
2022/01/27 09:44:30;;;;;;;39.87;24.57;;;7.20;99.90;;;;;;5103796;28;20275;-91
2022/01/27 09:47:01;;;;;;;43.87;26.07;;;7.20;99.90;;;;;;5109615;28;20201;-92
2022/01/27 09:49:38;;;;;;;40.70;23.00;;;7.20;99.90;;;;;;5114787;28;20642;-90
2022/01/27 09:52:05;;;;;;;38.83;25.10;;;7.20;99.90;;;;;;5109558;28;20174;-92
2022/01/27 09:54:32;;;;;;;43.30;25.57;;;7.20;99.90;;;;;;5111042;28;20186;-90
2022/01/27 09:57:02;;;;;;;45.43;26.40;;;7.30;99.90;;;;;;5106601;28;20219;-91
2022/01/27 09:59:28;;;;;;;39.27;24.20;;;7.30;99.90;;;;;;5107433;28;20172;-91
2022/01/27 10:01:57;;;;;;;42.67;25.97;;;7.40;99.90;;;;;;5120266;28;20179;-92
2022/01/27 10:04:41;;;;;;;48.07;26.30;;;7.50;99.90;;;;;;5115359;28;20183;-92
2022/01/27 10:07:21;;;;;;;43.10;25.53;;;7.50;99.90;;;;;;5104901;28;20189;-91
2022/01/27 10:09:57;;;;;;;44.53;25.87;;;7.40;99.90;;;;;;5121751;28;20179;-90
2022/01/27 10:12:32;;;;;;;41.90;25.43;;;7.40;99.90;;;;;;5108338;28;20172;-92
2022/01/27 10:15:07;;;;;;;43.77;25.83;;;7.40;99.90;;;;;;5113123;28;20205;-91
2022/01/27 10:17:38;;;;;;;44.97;27.03;;;7.40;99.90;;;;;;5116252;28;20177;-89
2022/01/27 10:20:21;;;;;;;42.43;25.73;;;7.40;99.90;;;;;;5110204;28;21563;-91
2022/01/27 10:23:20;;;;;;;44.50;26.00;;;7.40;99.90;;;;;;5106050;28;20198;-89
2022/01/27 10:25:55;;;;;;;41.00;24.50;;;7.40;99.90;;;;;;5114242;28;20635;-92
2022/01/27 10:28:30;;;;;;;41.17;25.13;;;7.30;99.90;;;;;;5111912;28;20549;-90
2022/01/27 10:31:04;;;;;;;50.33;27.83;;;7.40;99.90;;;;;;5104800;28;20167;-91
2022/01/27 10:33:53;;;;;;;40.00;25.10;;;7.40;99.90;;;;;;5119515;28;20558;-88
2022/01/27 10:36:31;;;;;;;48.23;27.10;;;7.40;99.90;;;;;;5112808;28;20667;-91
2022/01/27 10:39:06;;;;;;;40.43;25.60;;;7.50;99.90;;;;;;5116203;28;20224;-92
2022/01/27 10:41:37;;;;;;;48.40;27.63;;;7.50;99.90;;;;;;5115202;28;20232;-92
2022/01/27 10:44:16;;;;;;;44.50;26.93;;;7.50;99.90;;;;;;5109120;28;20176;-92
2022/01/27 10:47:17;;;;;;;51.63;30.60;;;7.50;99.90;;;;;;5106256;28;20278;-91
2022/01/27 10:49:59;;;;;;;43.47;26.17;;;7.50;99.90;;;;;;5106694;28;20175;-91
2022/01/27 10:52:41;;;;;;;42.53;24.33;;;7.60;99.90;;;;;;5097842;28;20182;-91
2022/01/27 10:55:13;;;;;;;46.63;26.80;;;7.80;99.90;;;;;;5106126;28;20194;-89
2022/01/27 10:57:47;;;;;;;42.27;25.77;;;7.70;99.90;;;;;;5093959;28;20228;-91
2022/01/27 11:00:24;;;;;;;50.00;26.70;;;7.70;99.90;;;;;;5112198;28;20197;-91
2022/01/27 11:03:02;;;;;;;41.53;25.27;;;7.70;99.90;;;;;;5099838;28;20661;-92
2022/01/27 11:05:31;;;;;;;46.53;25.77;;;7.70;99.90;;;;;;5117494;28;20337;-92
2022/01/27 11:08:03;;;;;;;46.27;25.60;;;7.70;99.90;;;;;;5106081;28;20190;-91
2022/01/27 11:10:28;;;;;;;42.83;24.23;;;7.80;99.90;;;;;;5082730;28;20580;-93
2022/01/27 11:12:56;;;;;;;39.13;25.00;;;7.80;99.90;;;;;;5116823;28;20186;-92
2022/01/27 11:15:22;;;;;;;42.73;25.73;;;7.80;99.90;;;;;;5122646;28;20206;-93
2022/01/27 11:17:49;;;;;;;43.03;26.57;;;7.80;99.90;;;;;;5104125;28;20275;-90
2022/01/27 11:20:34;;;;;;;43.70;26.27;;;7.90;99.90;;;;;;5115146;28;20182;-94
2022/01/27 11:23:35;;;;;;;43.03;25.87;;;8.00;99.90;;;;;;5116329;28;20219;-93
2022/01/27 11:25:59;;;;;;;43.37;26.20;;;8.10;99.90;;;;;;5127933;27;20167;-94
2022/01/27 11:28:27;;;;;;;44.50;26.63;;;7.80;99.90;;;;;;5134644;27;20163;-92
2022/01/27 11:31:30;;;;;;;42.83;25.67;;;8.00;99.90;;;;;;5129786;28;20171;-93
2022/01/27 11:34:07;;;;;;;43.67;25.43;;;8.00;99.90;;;;;;5129262;28;20258;-92
2022/01/27 11:39:52;;;;;;;45.83;27.70;;;8.10;99.90;;;;;;5127756;28;20172;-92
2022/01/27 11:42:41;;;;;;;47.57;26.60;;;8.20;99.90;;;;;;5123731;28;20193;-92
2022/01/27 11:45:28;;;;;;;43.20;26.13;;;8.20;99.90;;;;;;5115527;28;20191;-93
2022/01/27 11:48:01;;;;;;;43.87;25.63;;;8.10;99.90;;;;;;5121735;28;20195;-94
2022/01/27 11:50:35;;;;;;;41.27;25.20;;;8.10;99.90;;;;;;5117448;28;20231;-89
2022/01/27 11:53:11;;;;;;;44.17;26.13;;;8.10;99.90;;;;;;5116622;28;20170;-91
2022/01/27 11:55:44;;;;;;;43.50;26.30;;;8.10;99.90;;;;;;5128729;28;20218;-90
2022/01/27 11:58:21;;;;;;;41.37;26.00;;;8.10;99.90;;;;;;5094190;28;20294;-91
2022/01/27 12:01:10;;;;;;;41.27;24.23;;;8.10;99.90;;;;;;5117740;28;20565;-90
2022/01/27 12:03:38;;;;;;;40.70;25.33;;;8.10;99.90;;;;;;5114328;28;20241;-92
2022/01/27 12:06:24;;;;;;;34.37;23.20;;;8.10;99.90;;;;;;5113211;28;20175;-94
2022/01/27 12:09:19;;;;;;;37.47;24.83;;;8.20;99.90;;;;;;5106720;28;20187;-92
2022/01/27 12:12:00;;;;;;;36.10;23.73;;;8.10;99.90;;;;;;5114547;28;20175;-93
2022/01/27 12:14:46;;;;;;;40.13;25.47;;;8.20;99.90;;;;;;5113532;27;20179;-94
2022/01/27 12:17:12;;;;;;;36.77;23.40;;;8.20;99.90;;;;;;5125648;27;20186;-89
2022/01/27 12:19:58;;;;;;;39.53;24.00;;;8.30;99.90;;;;;;5129943;27;20614;-91
2022/01/27 12:22:27;;;;;;;38.50;24.50;;;8.20;99.90;;;;;;5110734;28;20184;-90
2022/01/27 12:24:57;;;;;;;37.87;23.60;;;8.40;99.90;;;;;;5116084;28;20167;-89
2022/01/27 12:27:28;;;;;;;37.40;23.50;;;8.30;99.90;;;;;;5119302;28;20246;-90
2022/01/27 12:30:00;;;;;;;33.50;22.70;;;8.40;99.90;;;;;;5115399;28;20179;-90
2022/01/27 12:32:33;;;;;;;35.77;23.67;;;8.30;99.90;;;;;;5102477;28;20192;-91
2022/01/27 12:35:15;;;;;;;34.07;23.03;;;8.30;99.90;;;;;;5116482;28;20207;-92
2022/01/27 12:37:43;;;;;;;32.93;22.40;;;8.40;99.90;;;;;;5114459;28;20321;-89
2022/01/27 12:40:17;;;;;;;34.87;23.17;;;8.40;99.90;;;;;;5133940;22;20260;-90
2022/01/27 12:43:11;;;;;;;36.07;22.10;;;8.40;99.90;;;;;;5053277;28;20168;-93
2022/01/27 12:45:41;;;;;;;32.93;21.23;;;8.40;99.90;;;;;;5061163;28;20188;-91
2022/01/27 12:48:13;;;;;;;35.27;23.20;;;8.40;99.90;;;;;;5074652;28;20224;-93
2022/01/27 12:50:40;;;;;;;32.43;22.33;;;8.40;99.90;;;;;;5077814;28;20226;-91
2022/01/27 12:53:12;;;;;;;34.23;21.03;;;8.40;99.90;;;;;;5062742;28;20195;-92
2022/01/27 12:55:45;;;;;;;30.00;20.13;;;8.40;99.90;;;;;;5075253;28;20196;-93
2022/01/27 12:58:13;;;;;;;37.20;22.00;;;8.40;99.90;;;;;;5051394;28;20165;-93
2022/01/27 13:00:48;;;;;;;28.93;19.63;;;8.40;99.90;;;;;;5061965;28;20180;-90
2022/01/27 13:03:16;;;;;;;28.20;20.57;;;8.60;99.90;;;;;;5059988;28;20176;-92
2022/01/27 13:05:53;;;;;;;28.40;19.73;;;8.70;99.90;;;;;;5080057;28;20236;-90
2022/01/27 13:08:43;;;;;;;26.83;17.67;;;8.70;99.90;;;;;;5065441;28;20191;-92
2022/01/27 13:11:13;;;;;;;27.73;19.07;;;8.70;99.90;;;;;;5058966;28;20190;-92
2022/01/27 13:13:46;;;;;;;26.37;18.63;;;8.70;99.90;;;;;;5081451;28;20172;-93
2022/01/27 13:16:19;;;;;;;25.30;18.13;;;8.70;99.90;;;;;;5081592;28;20192;-92
2022/01/27 13:19:06;;;;;;;27.07;18.07;;;8.90;99.90;;;;;;5074913;28;20208;-92
2022/01/27 13:21:41;;;;;;;25.83;18.10;;;8.70;99.90;;;;;;5081558;28;20188;-89
2022/01/27 13:24:15;;;;;;;28.83;19.43;;;8.80;99.90;;;;;;5061366;28;20197;-93
2022/01/27 13:26:50;;;;;;;24.50;18.17;;;8.80;99.90;;;;;;5063796;28;20188;-91
2022/01/27 13:29:59;;;;;;;27.13;18.17;;;8.80;99.90;;;;;;5067339;28;20172;-93
2022/01/27 13:32:26;;;;;;;25.67;18.60;;;8.80;99.90;;;;;;5057985;28;20200;-91
2022/01/27 13:34:55;;;;;;;28.87;18.53;;;8.80;99.90;;;;;;5039404;28;20212;-91
2022/01/27 13:37:32;;;;;;;25.50;18.87;;;8.70;99.90;;;;;;5054373;28;20185;-91